createdAt,value
2022-08-08T00:00:55.026Z,20.90
2022-08-08T00:03:32.184Z,20.70
2022-08-08T00:06:15.818Z,20.70
2022-08-08T00:09:07.844Z,20.60
2022-08-08T00:11:47.082Z,20.70
2022-08-08T00:14:58.848Z,20.60
2022-08-08T00:18:03.918Z,20.60
2022-08-08T00:20:42.636Z,20.60
2022-08-08T00:23:23.887Z,20.60
2022-08-08T00:25:59.228Z,20.40
2022-08-08T00:28:46.714Z,20.50
2022-08-08T00:32:28.932Z,20.50
2022-08-08T00:34:58.079Z,20.60
2022-08-08T00:37:45.430Z,20.60
2022-08-08T00:41:10.211Z,20.50
2022-08-08T00:43:46.163Z,20.60
2022-08-08T00:46:57.157Z,20.40
2022-08-08T00:49:42.861Z,20.40
2022-08-08T00:52:39.288Z,20.40
2022-08-08T00:55:52.974Z,20.40
2022-08-08T00:58:36.173Z,20.30
2022-08-08T01:01:36.401Z,20.20
2022-08-08T01:04:47.415Z,20.40
2022-08-08T01:07:55.027Z,20.30
2022-08-08T01:11:08.032Z,20.40
2022-08-08T01:14:54.910Z,20.40
2022-08-08T01:17:44.836Z,20.40
2022-08-08T01:20:18.285Z,20.30
2022-08-08T01:23:06.177Z,20.30
2022-08-08T01:25:58.401Z,20.20
2022-08-08T01:28:55.207Z,20.20
2022-08-08T01:32:17.212Z,20.20
2022-08-08T01:34:50.226Z,20.30
2022-08-08T01:37:57.235Z,20.30
2022-08-08T01:41:04.568Z,20.00
2022-08-08T01:43:53.501Z,20.20
2022-08-08T01:46:47.723Z,20.20
2022-08-08T01:50:00.749Z,20.10
2022-08-08T01:54:19.988Z,20.20
2022-08-08T01:56:26.895Z,20.10
2022-08-08T01:58:54.428Z,20.10
2022-08-08T15:26:30.245Z,24.10
2022-08-08T15:28:57.635Z,25.10
2022-08-08T15:34:31.922Z,25.10
2022-08-08T15:37:02.169Z,24.80
2022-08-08T15:39:37.605Z,23.30
2022-08-08T15:42:06.997Z,22.20
2022-08-08T15:44:38.744Z,21.70
2022-08-08T15:47:07.239Z,21.40
2022-08-08T15:49:44.469Z,21.60
2022-08-08T15:52:16.002Z,21.50
2022-08-08T15:54:46.189Z,21.10
2022-08-08T15:57:15.522Z,21.00
2022-08-08T16:00:11.902Z,21.10
2022-08-08T16:02:44.100Z,21.20
2022-08-08T16:05:19.114Z,21.20
2022-08-08T16:07:52.978Z,21.30
2022-08-08T16:13:14.782Z,21.40
2022-08-08T16:13:32.164Z,21.40
2022-08-08T16:16:09.652Z,21.30
2022-08-08T16:18:43.486Z,21.40
2022-08-08T16:21:20.744Z,21.40
2022-08-08T16:23:55.617Z,21.40
2022-08-08T16:26:34.254Z,21.40
2022-08-08T16:29:08.107Z,21.50
2022-08-08T16:31:40.321Z,21.50
2022-08-08T16:34:08.864Z,21.50
2022-08-08T16:36:37.434Z,21.80
2022-08-08T16:39:09.939Z,22.30
2022-08-08T16:41:52.970Z,22.80
2022-08-08T16:44:27.937Z,23.10
2022-08-08T16:47:16.676Z,23.20
2022-08-08T16:49:43.816Z,23.10
2022-08-08T16:55:02.583Z,23.00
2022-08-08T16:55:33.571Z,23.00
2022-08-08T16:58:13.999Z,22.70
2022-08-08T17:00:37.007Z,22.40
2022-08-08T17:03:04.007Z,22.60
2022-08-08T17:05:44.747Z,22.80
2022-08-08T17:08:12.230Z,22.80
2022-08-08T17:10:47.534Z,22.40
2022-08-08T17:13:27.465Z,22.30
2022-08-08T17:16:15.440Z,22.30
2022-08-08T17:18:45.607Z,22.10
2022-08-08T17:21:13.721Z,22.10
2022-08-08T17:24:01.737Z,22.10
2022-08-08T17:26:29.391Z,22.10
2022-08-08T17:28:58.917Z,22.20
2022-08-08T17:31:43.428Z,22.00
2022-08-08T17:34:49.090Z,21.90
2022-08-08T17:37:14.382Z,21.80
2022-08-08T17:40:03.361Z,21.70
2022-08-08T17:42:28.787Z,21.60
2022-08-08T17:44:58.073Z,21.50
2022-08-08T17:47:28.092Z,21.40
2022-08-08T17:50:01.344Z,21.30
2022-08-08T17:52:31.071Z,21.30
2022-08-08T17:55:00.278Z,21.30
2022-08-08T17:57:28.859Z,21.20
2022-08-08T18:00:04.875Z,21.20
2022-08-08T18:02:40.496Z,21.20
2022-08-08T18:05:22.402Z,21.20
2022-08-08T18:08:03.210Z,21.20
2022-08-08T18:10:31.845Z,21.20
2022-08-08T18:13:03.969Z,21.20
2022-08-08T18:15:34.409Z,21.20
2022-08-08T18:18:09.809Z,21.20
2022-08-08T18:20:55.090Z,21.10
2022-08-08T18:23:26.870Z,21.10
2022-08-08T18:25:53.806Z,21.10
2022-08-08T18:28:25.459Z,21.10
2022-08-08T18:30:52.687Z,21.00
2022-08-08T18:33:36.534Z,21.00
2022-08-08T18:36:18.817Z,20.90
2022-08-08T18:38:50.477Z,20.90
2022-08-08T18:41:19.222Z,20.80
2022-08-08T18:44:05.512Z,20.80
2022-08-08T18:46:55.506Z,20.80
2022-08-08T18:49:19.400Z,20.80
2022-08-08T18:51:53.941Z,20.70
2022-08-08T18:54:29.714Z,20.70
2022-08-08T18:56:57.807Z,20.70
2022-08-08T18:59:34.571Z,20.60
2022-08-08T19:02:26.380Z,20.60
2022-08-08T19:04:53.562Z,20.60
2022-08-08T19:07:23.110Z,20.50
2022-08-08T19:10:14.373Z,20.50
2022-08-08T19:12:44.737Z,20.50
2022-08-08T19:15:23.566Z,20.50
2022-08-08T19:18:33.331Z,20.40
2022-08-08T19:20:40.385Z,20.40
2022-08-08T19:23:10.863Z,20.30
2022-08-08T19:26:19.898Z,20.40
2022-08-08T19:28:25.652Z,20.40
2022-08-08T19:31:04.121Z,20.40
2022-08-08T19:33:51.703Z,20.40
2022-08-08T19:36:27.367Z,20.40
2022-08-08T19:38:55.238Z,20.30
2022-08-08T19:41:25.603Z,20.30
2022-08-08T19:44:02.263Z,20.20
2022-08-08T19:46:33.524Z,20.20
2022-08-08T19:49:01.674Z,20.30
2022-08-08T19:51:34.136Z,20.30
2022-08-08T19:54:02.030Z,20.20
2022-08-08T19:56:39.681Z,20.20
2022-08-08T19:59:12.772Z,20.30
2022-08-08T20:02:02.194Z,20.20
2022-08-08T20:04:31.309Z,20.30
2022-08-08T20:07:05.016Z,20.20
2022-08-08T20:09:55.650Z,20.20
2022-08-08T20:12:32.619Z,20.20
2022-08-08T20:15:14.388Z,20.20
2022-08-08T20:17:46.436Z,20.30
2022-08-08T20:20:19.146Z,20.30
2022-08-08T20:22:48.830Z,20.30
2022-08-08T20:25:20.245Z,20.30
2022-08-08T20:27:50.243Z,20.30
2022-08-08T20:30:52.738Z,20.30
2022-08-08T20:33:18.524Z,20.30
2022-08-08T20:35:58.011Z,20.30
2022-08-08T20:38:33.394Z,20.30
2022-08-08T20:41:17.119Z,20.20
2022-08-08T20:43:49.713Z,20.20
2022-08-08T20:46:20.392Z,20.20
2022-08-08T20:48:51.303Z,20.30
2022-08-08T20:51:18.595Z,20.30
2022-08-08T20:53:59.755Z,20.30
2022-08-08T20:56:35.541Z,20.10
2022-08-08T20:59:09.036Z,20.10
2022-08-08T21:01:44.316Z,20.20
2022-08-08T21:04:27.699Z,20.10
2022-08-08T21:06:55.384Z,20.10
2022-08-08T21:09:22.731Z,20.10
2022-08-08T21:11:50.368Z,20.10
2022-08-08T21:14:17.839Z,20.10
2022-08-08T21:16:57.443Z,20.10
2022-08-08T21:19:25.977Z,20.00
2022-08-08T21:22:11.639Z,20.00
2022-08-08T21:24:39.714Z,20.00
2022-08-08T21:28:06.090Z,20.10
2022-08-08T21:30:16.287Z,20.00
2022-08-08T21:32:45.794Z,20.10
2022-08-08T21:36:16.751Z,20.10
2022-08-08T21:38:11.787Z,20.00
2022-08-08T21:40:54.730Z,19.90
2022-08-08T21:43:33.068Z,19.90
2022-08-08T21:48:20.132Z,19.90
2022-08-08T21:48:55.600Z,19.80
2022-08-08T21:54:23.307Z,19.70
2022-08-08T21:54:36.070Z,19.70
2022-08-08T21:56:59.754Z,19.70
2022-08-08T21:59:28.352Z,19.70
2022-08-08T22:02:11.161Z,19.70
2022-08-08T22:04:39.488Z,19.70
2022-08-08T22:07:06.313Z,19.80
2022-08-08T22:09:37.531Z,19.80
2022-08-08T22:12:09.717Z,19.70
2022-08-08T22:14:42.670Z,19.80
2022-08-08T22:17:10.448Z,19.70
2022-08-08T22:20:12.358Z,19.70
2022-08-08T22:22:28.918Z,19.80
2022-08-08T22:24:57.710Z,19.80
2022-08-08T22:27:38.388Z,19.80
2022-08-08T22:30:11.406Z,19.80
2022-08-08T22:32:40.795Z,19.70
2022-08-08T22:35:08.440Z,19.80
2022-08-08T22:37:53.663Z,19.80
2022-08-08T22:40:21.517Z,19.80
2022-08-08T22:42:48.416Z,19.80
2022-08-08T22:45:15.868Z,19.90
2022-08-08T22:47:46.673Z,19.80
2022-08-08T22:50:26.859Z,19.80
2022-08-08T22:54:29.673Z,19.80
2022-08-08T22:55:58.972Z,19.80
2022-08-08T22:58:34.263Z,19.80
2022-08-08T23:02:00.868Z,19.80
2022-08-08T23:03:56.472Z,19.70
2022-08-08T23:06:26.707Z,19.70
2022-08-08T23:08:59.002Z,19.60
2022-08-08T23:12:28.898Z,19.70
2022-08-08T23:14:20.460Z,19.60
2022-08-08T23:16:54.892Z,19.60
2022-08-08T23:19:27.571Z,19.40
2022-08-08T23:21:57.978Z,19.50
2022-08-08T23:24:24.779Z,19.50
2022-08-08T23:26:56.029Z,19.50
2022-08-08T23:29:24.750Z,19.40
2022-08-08T23:31:53.825Z,19.50
2022-08-08T23:34:21.190Z,19.50
2022-08-08T23:36:57.883Z,19.60
2022-08-08T23:39:42.263Z,19.70
2022-08-08T23:42:16.670Z,19.60
2022-08-08T23:44:43.532Z,19.60
2022-08-08T23:49:06.341Z,19.60
2022-08-08T23:50:03.338Z,19.60
2022-08-08T23:52:33.148Z,19.60
2022-08-08T23:55:14.401Z,19.60
2022-08-08T23:57:52.244Z,19.60
